createdAt,value
2018-03-16T00:05:08.000Z,35.519
2018-03-16T00:15:08.000Z,35.484
2018-03-16T00:25:08.000Z,35.697
2018-03-16T00:35:08.000Z,35.552
2018-03-16T00:45:09.000Z,35.873
2018-03-16T00:55:08.000Z,35.846
2018-03-16T01:05:08.000Z,35.79
2018-03-16T01:15:08.000Z,35.949
2018-03-16T01:25:08.000Z,35.989
2018-03-16T01:35:08.000Z,36.039
2018-03-16T01:45:08.000Z,36.217
2018-03-16T01:55:08.000Z,36.279
2018-03-16T02:05:08.000Z,36.448
2018-03-16T02:15:08.000Z,36.446
2018-03-16T02:25:08.000Z,36.497
2018-03-16T02:35:08.000Z,36.59
2018-03-16T02:45:08.000Z,36.866
2018-03-16T02:55:08.000Z,36.735
2018-03-16T03:05:08.000Z,36.72
2018-03-16T03:15:08.000Z,36.858
2018-03-16T03:25:08.000Z,36.876
2018-03-16T03:35:08.000Z,36.842
2018-03-16T03:45:08.000Z,36.881
2018-03-16T03:55:08.000Z,36.825
2018-03-16T04:05:08.000Z,36.909
2018-03-16T04:15:08.000Z,36.981
2018-03-16T04:25:08.000Z,37.043
2018-03-16T04:35:08.000Z,37.213
2018-03-16T04:45:08.000Z,37.262
2018-03-16T04:55:08.000Z,37.465
2018-03-16T05:05:09.000Z,37.282
2018-03-16T05:15:08.000Z,37.387
2018-03-16T05:25:09.000Z,37.234
2018-03-16T05:35:09.000Z,37.135
2018-03-16T05:45:09.000Z,37.005
2018-03-16T05:55:09.000Z,36.983
2018-03-16T06:05:09.000Z,37.002
2018-03-16T06:15:09.000Z,36.937
2018-03-16T06:25:09.000Z,36.925
2018-03-16T06:35:09.000Z,36.819
2018-03-16T06:45:09.000Z,36.656
2018-03-16T06:55:09.000Z,36.709
2018-03-16T07:05:09.000Z,36.493
2018-03-16T07:15:09.000Z,36.299
2018-03-16T07:25:09.000Z,36.191
2018-03-16T07:35:09.000Z,35.903
2018-03-16T07:45:09.000Z,35.706
2018-03-16T07:55:09.000Z,35.316
2018-03-16T08:05:09.000Z,35.281
2018-03-16T08:15:09.000Z,35.08
2018-03-16T08:25:09.000Z,34.709
2018-03-16T08:35:09.000Z,34.647
2018-03-16T08:45:09.000Z,34.798
2018-03-16T08:55:09.000Z,35.104
2018-03-16T09:05:09.000Z,35.086
2018-03-16T09:15:09.000Z,35.515
2018-03-16T09:25:09.000Z,36.636
2018-03-16T09:35:09.000Z,37.173
2018-03-16T09:45:09.000Z,37.23
2018-03-16T09:55:09.000Z,37.52
2018-03-16T10:05:09.000Z,37.349
2018-03-16T10:15:09.000Z,37.208
2018-03-16T10:25:09.000Z,36.872
2018-03-16T10:35:09.000Z,36.828
2018-03-16T10:45:09.000Z,36.525
2018-03-16T10:55:09.000Z,36.514
2018-03-16T11:05:09.000Z,36.139
2018-03-16T11:15:09.000Z,36.396
2018-03-16T11:25:09.000Z,36.417
2018-03-16T11:35:09.000Z,36.47
2018-03-16T11:45:09.000Z,36.245
2018-03-16T11:55:09.000Z,36.169
2018-03-16T12:05:09.000Z,36.041
2018-03-16T12:15:09.000Z,36.107
2018-03-16T12:25:09.000Z,36.312
2018-03-16T12:35:09.000Z,36.303
2018-03-16T12:45:09.000Z,36.217
2018-03-16T12:55:09.000Z,36.152
2018-03-16T13:05:09.000Z,36.536
2018-03-16T13:15:09.000Z,36.26
2018-03-16T13:25:09.000Z,36.546
2018-03-16T13:35:09.000Z,36.726
2018-03-16T13:45:09.000Z,37.23
2018-03-16T13:55:10.000Z,37.431
2018-03-16T14:05:10.000Z,37.576
2018-03-16T14:15:10.000Z,37.477
2018-03-16T14:25:10.000Z,37.486
2018-03-16T14:35:10.000Z,37.526
2018-03-16T14:45:10.000Z,37.405
2018-03-16T14:55:10.000Z,37.316
2018-03-16T15:05:10.000Z,37.799
2018-03-16T15:15:10.000Z,38.876
2018-03-16T15:25:10.000Z,38.873
2018-03-16T15:35:10.000Z,38.774
2018-03-16T15:45:10.000Z,38.695
2018-03-16T15:55:13.000Z,38.191
2018-03-16T16:05:10.000Z,38.668
2018-03-16T16:15:10.000Z,38
2018-03-16T16:25:10.000Z,37.256
2018-03-16T16:35:10.000Z,36.48
2018-03-16T16:45:10.000Z,36.658
2018-03-16T16:55:10.000Z,37.182
2018-03-16T17:05:10.000Z,37.973
2018-03-16T17:15:10.000Z,38.131
2018-03-16T17:25:10.000Z,37.134
2018-03-16T17:35:10.000Z,36.277
2018-03-16T17:45:10.000Z,37.461
2018-03-16T17:55:10.000Z,37.653
2018-03-16T18:05:10.000Z,37.57
2018-03-16T18:15:10.000Z,37.922
2018-03-16T18:25:10.000Z,37.965
2018-03-16T18:35:10.000Z,37.946
2018-03-16T18:45:10.000Z,37.991
2018-03-16T18:55:11.000Z,38.024
2018-03-16T19:05:10.000Z,38.133
2018-03-16T19:15:10.000Z,37.991
2018-03-16T19:25:11.000Z,37.729
2018-03-16T19:35:10.000Z,37.128
2018-03-16T19:45:11.000Z,36.889
2018-03-16T19:55:10.000Z,36.648
2018-03-16T20:05:12.000Z,37.03
2018-03-16T20:15:10.000Z,36.969
2018-03-16T20:25:10.000Z,36.773
2018-03-16T20:35:10.000Z,36.708
2018-03-16T20:45:10.000Z,36.363
2018-03-16T20:55:10.000Z,36.25
2018-03-16T21:05:10.000Z,36.458
2018-03-16T21:15:10.000Z,36.319
2018-03-16T21:25:10.000Z,36.353
2018-03-16T21:35:10.000Z,36.123
2018-03-16T21:45:10.000Z,35.652
2018-03-16T21:55:10.000Z,35.538
2018-03-16T22:05:11.000Z,34.893
2018-03-16T22:15:12.000Z,34.745
2018-03-16T22:35:11.000Z,34.229
2018-03-16T22:45:11.000Z,34.041
2018-03-16T22:55:11.000Z,34.003
2018-03-16T23:05:12.000Z,34.313
2018-03-16T23:15:11.000Z,34.21
2018-03-16T23:25:11.000Z,34.107
2018-03-16T23:35:11.000Z,33.842
2018-03-16T23:45:11.000Z,34.259
2018-03-16T23:55:11.000Z,34.115
